sensor_id;sensor_type;location;lat;lon;timestamp;temperature;humidity
50969;DHT22;36982;51.474;7.228;2023-11-21T00:02:03;6.90;99.90
50969;DHT22;36982;51.474;7.228;2023-11-21T00:04:30;7.00;99.90
50969;DHT22;36982;51.474;7.228;2023-11-21T00:06:55;7.10;99.90
50969;DHT22;36982;51.474;7.228;2023-11-21T00:09:21;7.10;99.90
50969;DHT22;36982;51.474;7.228;2023-11-21T00:11:47;7.20;99.90
50969;DHT22;36982;51.474;7.228;2023-11-21T00:14:13;7.10;99.90
50969;DHT22;36982;51.474;7.228;2023-11-21T00:16:41;7.10;99.90
50969;DHT22;36982;51.474;7.228;2023-11-21T00:19:06;7.00;99.90
50969;DHT22;36982;51.474;7.228;2023-11-21T00:21:32;7.00;99.90
50969;DHT22;36982;51.474;7.228;2023-11-21T00:23:58;7.00;99.90
50969;DHT22;36982;51.474;7.228;2023-11-21T00:26:23;7.10;99.90
50969;DHT22;36982;51.474;7.228;2023-11-21T00:28:50;7.20;99.90
50969;DHT22;36982;51.474;7.228;2023-11-21T00:31:16;7.30;99.90
50969;DHT22;36982;51.474;7.228;2023-11-21T00:33:41;7.40;99.90
50969;DHT22;36982;51.474;7.228;2023-11-21T00:36:07;7.50;99.90
50969;DHT22;36982;51.474;7.228;2023-11-21T00:38:35;7.60;99.90
50969;DHT22;36982;51.474;7.228;2023-11-21T00:41:01;7.60;99.90
50969;DHT22;36982;51.474;7.228;2023-11-21T00:43:26;7.70;99.90
50969;DHT22;36982;51.474;7.228;2023-11-21T00:45:52;7.70;99.90
50969;DHT22;36982;51.474;7.228;2023-11-21T00:48:18;7.70;99.90
50969;DHT22;36982;51.474;7.228;2023-11-21T00:50:44;7.80;99.90
50969;DHT22;36982;51.474;7.228;2023-11-21T00:53:09;7.80;99.90
50969;DHT22;36982;51.474;7.228;2023-11-21T00:55:36;7.80;99.90
50969;DHT22;36982;51.474;7.228;2023-11-21T00:58:02;7.80;99.90
50969;DHT22;36982;51.474;7.228;2023-11-21T01:00:29;7.90;99.90
50969;DHT22;36982;51.474;7.228;2023-11-21T01:02:55;8.00;99.90
50969;DHT22;36982;51.474;7.228;2023-11-21T01:05:21;7.90;99.90
50969;DHT22;36982;51.474;7.228;2023-11-21T01:07:46;7.80;99.90
50969;DHT22;36982;51.474;7.228;2023-11-21T01:10:12;7.80;99.90
50969;DHT22;36982;51.474;7.228;2023-11-21T01:12:38;7.60;99.90
50969;DHT22;36982;51.474;7.228;2023-11-21T01:15:05;7.60;99.90
50969;DHT22;36982;51.474;7.228;2023-11-21T01:17:32;7.60;99.90
50969;DHT22;36982;51.474;7.228;2023-11-21T01:19:59;7.50;99.90
50969;DHT22;36982;51.474;7.228;2023-11-21T01:22:25;7.60;99.90
50969;DHT22;36982;51.474;7.228;2023-11-21T01:24:52;7.80;99.90
50969;DHT22;36982;51.474;7.228;2023-11-21T01:27:18;7.80;99.90
50969;DHT22;36982;51.474;7.228;2023-11-21T01:29:44;8.10;99.90
50969;DHT22;36982;51.474;7.228;2023-11-21T01:32:10;7.90;99.90
50969;DHT22;36982;51.474;7.228;2023-11-21T01:34:36;8.00;99.90
50969;DHT22;36982;51.474;7.228;2023-11-21T01:37:02;8.00;99.90
50969;DHT22;36982;51.474;7.228;2023-11-21T01:39:30;8.00;99.90
50969;DHT22;36982;51.474;7.228;2023-11-21T01:41:55;8.10;99.90
50969;DHT22;36982;51.474;7.228;2023-11-21T01:44:24;8.20;99.90
50969;DHT22;36982;51.474;7.228;2023-11-21T01:46:50;8.20;99.90
50969;DHT22;36982;51.474;7.228;2023-11-21T01:49:17;8.30;99.90
50969;DHT22;36982;51.474;7.228;2023-11-21T01:51:47;8.20;99.90
50969;DHT22;36982;51.474;7.228;2023-11-21T01:54:15;8.10;99.90
50969;DHT22;36982;51.474;7.228;2023-11-21T01:56:43;8.10;99.90
50969;DHT22;36982;51.474;7.228;2023-11-21T01:59:10;8.20;99.90
50969;DHT22;36982;51.474;7.228;2023-11-21T02:01:37;8.20;99.90
50969;DHT22;36982;51.474;7.228;2023-11-21T02:04:03;8.20;99.90
50969;DHT22;36982;51.474;7.228;2023-11-21T02:06:28;8.30;99.90
50969;DHT22;36982;51.474;7.228;2023-11-21T02:08:56;8.30;99.90
50969;DHT22;36982;51.474;7.228;2023-11-21T02:11:22;8.30;99.90
50969;DHT22;36982;51.474;7.228;2023-11-21T02:13:47;8.30;99.90
50969;DHT22;36982;51.474;7.228;2023-11-21T02:16:15;8.30;99.90
50969;DHT22;36982;51.474;7.228;2023-11-21T02:18:41;8.20;99.90
50969;DHT22;36982;51.474;7.228;2023-11-21T02:21:07;8.30;99.90
50969;DHT22;36982;51.474;7.228;2023-11-21T02:23:33;8.30;99.90
50969;DHT22;36982;51.474;7.228;2023-11-21T02:25:58;8.20;99.90
50969;DHT22;36982;51.474;7.228;2023-11-21T02:28:24;8.10;99.90
50969;DHT22;36982;51.474;7.228;2023-11-21T02:30:54;7.90;99.90
50969;DHT22;36982;51.474;7.228;2023-11-21T02:33:22;7.90;99.90
50969;DHT22;36982;51.474;7.228;2023-11-21T02:35:48;7.80;99.90
50969;DHT22;36982;51.474;7.228;2023-11-21T02:38:13;7.90;99.90
50969;DHT22;36982;51.474;7.228;2023-11-21T02:40:39;7.90;99.90
50969;DHT22;36982;51.474;7.228;2023-11-21T02:43:05;7.80;99.90
50969;DHT22;36982;51.474;7.228;2023-11-21T02:45:31;7.90;99.90
50969;DHT22;36982;51.474;7.228;2023-11-21T02:47:57;7.90;99.90
50969;DHT22;36982;51.474;7.228;2023-11-21T02:50:23;7.90;99.90
50969;DHT22;36982;51.474;7.228;2023-11-21T02:52:49;7.90;99.90
50969;DHT22;36982;51.474;7.228;2023-11-21T02:55:15;8.00;99.90
50969;DHT22;36982;51.474;7.228;2023-11-21T02:57:41;8.10;99.90
50969;DHT22;36982;51.474;7.228;2023-11-21T03:00:07;8.20;99.90
50969;DHT22;36982;51.474;7.228;2023-11-21T03:02:33;8.30;99.90
50969;DHT22;36982;51.474;7.228;2023-11-21T03:05:05;8.30;99.90
50969;DHT22;36982;51.474;7.228;2023-11-21T03:07:31;8.40;99.90
50969;DHT22;36982;51.474;7.228;2023-11-21T03:09:57;8.40;99.90
50969;DHT22;36982;51.474;7.228;2023-11-21T03:12:23;8.40;99.90
50969;DHT22;36982;51.474;7.228;2023-11-21T03:14:48;8.50;99.90
50969;DHT22;36982;51.474;7.228;2023-11-21T03:17:14;8.60;99.90
50969;DHT22;36982;51.474;7.228;2023-11-21T03:19:41;8.60;99.90
50969;DHT22;36982;51.474;7.228;2023-11-21T03:22:07;8.40;99.90
50969;DHT22;36982;51.474;7.228;2023-11-21T03:24:34;8.40;99.90
50969;DHT22;36982;51.474;7.228;2023-11-21T03:27:00;8.30;99.90
50969;DHT22;36982;51.474;7.228;2023-11-21T03:29:26;8.30;99.90
50969;DHT22;36982;51.474;7.228;2023-11-21T03:31:51;8.20;99.90
50969;DHT22;36982;51.474;7.228;2023-11-21T03:34:35;8.10;99.90
50969;DHT22;36982;51.474;7.228;2023-11-21T03:37:01;8.00;99.90
50969;DHT22;36982;51.474;7.228;2023-11-21T03:39:26;8.00;99.90
50969;DHT22;36982;51.474;7.228;2023-11-21T03:41:52;7.90;99.90
50969;DHT22;36982;51.474;7.228;2023-11-21T03:44:17;8.00;99.90
50969;DHT22;36982;51.474;7.228;2023-11-21T03:46:43;8.10;99.90
50969;DHT22;36982;51.474;7.228;2023-11-21T03:49:09;8.20;99.90
50969;DHT22;36982;51.474;7.228;2023-11-21T03:51:36;8.30;99.90
50969;DHT22;36982;51.474;7.228;2023-11-21T03:54:02;8.60;99.90
50969;DHT22;36982;51.474;7.228;2023-11-21T03:56:28;8.50;99.90
50969;DHT22;36982;51.474;7.228;2023-11-21T03:58:54;8.50;99.90
50969;DHT22;36982;51.474;7.228;2023-11-21T04:01:24;8.60;99.90
50969;DHT22;36982;51.474;7.228;2023-11-21T04:03:50;8.60;99.90
50969;DHT22;36982;51.474;7.228;2023-11-21T04:06:16;8.70;99.90
50969;DHT22;36982;51.474;7.228;2023-11-21T04:08:45;8.60;99.90
50969;DHT22;36982;51.474;7.228;2023-11-21T04:11:11;8.60;99.90
50969;DHT22;36982;51.474;7.228;2023-11-21T04:13:38;8.70;99.90
50969;DHT22;36982;51.474;7.228;2023-11-21T04:16:06;8.60;99.90
50969;DHT22;36982;51.474;7.228;2023-11-21T04:18:31;8.50;99.90
50969;DHT22;36982;51.474;7.228;2023-11-21T04:20:57;8.30;99.90
50969;DHT22;36982;51.474;7.228;2023-11-21T04:23:22;8.30;99.90
50969;DHT22;36982;51.474;7.228;2023-11-21T04:25:48;8.30;99.90
50969;DHT22;36982;51.474;7.228;2023-11-21T04:28:13;8.20;99.90
50969;DHT22;36982;51.474;7.228;2023-11-21T04:30:39;8.20;99.90
50969;DHT22;36982;51.474;7.228;2023-11-21T04:33:06;8.00;99.90
50969;DHT22;36982;51.474;7.228;2023-11-21T04:35:33;8.00;99.90
50969;DHT22;36982;51.474;7.228;2023-11-21T04:37:58;8.10;99.90
50969;DHT22;36982;51.474;7.228;2023-11-21T04:40:24;8.40;99.90
50969;DHT22;36982;51.474;7.228;2023-11-21T04:42:49;8.20;99.90
50969;DHT22;36982;51.474;7.228;2023-11-21T04:45:15;8.20;99.90
50969;DHT22;36982;51.474;7.228;2023-11-21T04:47:41;8.20;99.90
50969;DHT22;36982;51.474;7.228;2023-11-21T04:50:06;8.20;99.90
50969;DHT22;36982;51.474;7.228;2023-11-21T04:52:32;8.20;99.90
50969;DHT22;36982;51.474;7.228;2023-11-21T04:54:58;8.10;99.90
50969;DHT22;36982;51.474;7.228;2023-11-21T04:57:26;8.10;99.90
50969;DHT22;36982;51.474;7.228;2023-11-21T04:59:54;8.00;99.90
50969;DHT22;36982;51.474;7.228;2023-11-21T05:02:19;8.00;99.90
50969;DHT22;36982;51.474;7.228;2023-11-21T05:04:47;7.90;99.90
50969;DHT22;36982;51.474;7.228;2023-11-21T05:07:13;7.90;99.90
50969;DHT22;36982;51.474;7.228;2023-11-21T05:09:43;7.80;99.90
50969;DHT22;36982;51.474;7.228;2023-11-21T05:12:14;7.70;99.90
50969;DHT22;36982;51.474;7.228;2023-11-21T05:14:40;7.60;99.90
50969;DHT22;36982;51.474;7.228;2023-11-21T05:17:07;7.60;99.90
50969;DHT22;36982;51.474;7.228;2023-11-21T05:19:33;7.60;99.90
50969;DHT22;36982;51.474;7.228;2023-11-21T05:22:00;7.60;99.90
50969;DHT22;36982;51.474;7.228;2023-11-21T05:24:26;7.60;99.90
50969;DHT22;36982;51.474;7.228;2023-11-21T05:26:51;7.60;99.90
50969;DHT22;36982;51.474;7.228;2023-11-21T05:29:18;7.50;99.90
50969;DHT22;36982;51.474;7.228;2023-11-21T05:31:43;7.70;99.90
50969;DHT22;36982;51.474;7.228;2023-11-21T05:34:09;7.70;99.90
50969;DHT22;36982;51.474;7.228;2023-11-21T05:36:34;7.60;99.90
50969;DHT22;36982;51.474;7.228;2023-11-21T05:39:00;7.60;99.90
50969;DHT22;36982;51.474;7.228;2023-11-21T05:41:26;7.60;99.90
50969;DHT22;36982;51.474;7.228;2023-11-21T05:43:51;7.60;99.90
50969;DHT22;36982;51.474;7.228;2023-11-21T05:46:17;7.70;99.90
50969;DHT22;36982;51.474;7.228;2023-11-21T05:48:43;7.90;99.90
50969;DHT22;36982;51.474;7.228;2023-11-21T05:51:09;7.90;99.90
50969;DHT22;36982;51.474;7.228;2023-11-21T05:53:34;7.80;99.90
50969;DHT22;36982;51.474;7.228;2023-11-21T05:56:00;7.80;99.90
50969;DHT22;36982;51.474;7.228;2023-11-21T05:58:25;7.90;99.90
50969;DHT22;36982;51.474;7.228;2023-11-21T06:00:51;7.70;99.90
50969;DHT22;36982;51.474;7.228;2023-11-21T06:03:17;7.80;99.90
50969;DHT22;36982;51.474;7.228;2023-11-21T06:05:42;7.90;99.90
50969;DHT22;36982;51.474;7.228;2023-11-21T06:08:08;7.80;99.90
50969;DHT22;36982;51.474;7.228;2023-11-21T06:10:34;7.80;99.90
50969;DHT22;36982;51.474;7.228;2023-11-21T06:13:00;7.80;99.90
50969;DHT22;36982;51.474;7.228;2023-11-21T06:15:25;7.80;99.90
50969;DHT22;36982;51.474;7.228;2023-11-21T06:17:51;7.90;99.90
50969;DHT22;36982;51.474;7.228;2023-11-21T06:20:21;7.90;99.90
50969;DHT22;36982;51.474;7.228;2023-11-21T06:22:48;8.00;99.90
50969;DHT22;36982;51.474;7.228;2023-11-21T06:25:15;7.80;99.90
50969;DHT22;36982;51.474;7.228;2023-11-21T06:27:42;7.80;99.90
50969;DHT22;36982;51.474;7.228;2023-11-21T06:30:08;7.80;99.90
50969;DHT22;36982;51.474;7.228;2023-11-21T06:32:35;7.80;99.90
50969;DHT22;36982;51.474;7.228;2023-11-21T06:35:02;7.80;99.90
50969;DHT22;36982;51.474;7.228;2023-11-21T06:37:29;7.90;99.90
50969;DHT22;36982;51.474;7.228;2023-11-21T06:39:55;8.00;99.90
50969;DHT22;36982;51.474;7.228;2023-11-21T06:42:22;8.10;99.90
50969;DHT22;36982;51.474;7.228;2023-11-21T06:44:48;8.20;99.90
50969;DHT22;36982;51.474;7.228;2023-11-21T06:47:14;8.20;99.90
50969;DHT22;36982;51.474;7.228;2023-11-21T06:49:42;8.10;99.90
50969;DHT22;36982;51.474;7.228;2023-11-21T06:52:08;8.00;99.90
50969;DHT22;36982;51.474;7.228;2023-11-21T06:54:34;8.00;99.90
50969;DHT22;36982;51.474;7.228;2023-11-21T06:57:00;8.00;99.90
50969;DHT22;36982;51.474;7.228;2023-11-21T06:59:28;8.10;99.90
50969;DHT22;36982;51.474;7.228;2023-11-21T07:01:54;8.20;99.90
50969;DHT22;36982;51.474;7.228;2023-11-21T07:04:19;8.10;99.90
50969;DHT22;36982;51.474;7.228;2023-11-21T07:06:45;8.20;99.90
50969;DHT22;36982;51.474;7.228;2023-11-21T07:09:11;8.10;99.90
50969;DHT22;36982;51.474;7.228;2023-11-21T07:11:37;8.20;99.90
50969;DHT22;36982;51.474;7.228;2023-11-21T07:14:03;8.20;99.90
50969;DHT22;36982;51.474;7.228;2023-11-21T07:16:37;8.30;99.90
50969;DHT22;36982;51.474;7.228;2023-11-21T07:19:06;8.40;99.90
50969;DHT22;36982;51.474;7.228;2023-11-21T07:21:33;8.40;99.90
50969;DHT22;36982;51.474;7.228;2023-11-21T07:24:00;8.30;99.90
50969;DHT22;36982;51.474;7.228;2023-11-21T07:26:26;8.30;99.90
50969;DHT22;36982;51.474;7.228;2023-11-21T07:28:52;8.40;99.90
50969;DHT22;36982;51.474;7.228;2023-11-21T07:31:18;8.40;99.90
50969;DHT22;36982;51.474;7.228;2023-11-21T07:33:45;8.50;99.90
50969;DHT22;36982;51.474;7.228;2023-11-21T07:36:13;8.60;99.90
50969;DHT22;36982;51.474;7.228;2023-11-21T07:38:38;8.70;99.90
50969;DHT22;36982;51.474;7.228;2023-11-21T07:41:04;8.70;99.90
50969;DHT22;36982;51.474;7.228;2023-11-21T07:43:30;8.80;99.90
50969;DHT22;36982;51.474;7.228;2023-11-21T07:46:01;8.90;99.90
50969;DHT22;36982;51.474;7.228;2023-11-21T07:48:28;9.00;99.90
50969;DHT22;36982;51.474;7.228;2023-11-21T07:50:54;8.90;99.90
50969;DHT22;36982;51.474;7.228;2023-11-21T07:53:19;8.90;99.90
50969;DHT22;36982;51.474;7.228;2023-11-21T07:55:45;9.00;99.90
50969;DHT22;36982;51.474;7.228;2023-11-21T07:58:12;9.00;99.90
50969;DHT22;36982;51.474;7.228;2023-11-21T08:00:38;9.00;99.90
50969;DHT22;36982;51.474;7.228;2023-11-21T08:03:05;9.00;99.90
50969;DHT22;36982;51.474;7.228;2023-11-21T08:05:31;9.10;99.90
50969;DHT22;36982;51.474;7.228;2023-11-21T08:07:57;9.00;99.90
50969;DHT22;36982;51.474;7.228;2023-11-21T08:10:22;9.00;99.90
50969;DHT22;36982;51.474;7.228;2023-11-21T08:12:48;9.00;99.90
50969;DHT22;36982;51.474;7.228;2023-11-21T08:15:16;9.10;99.90
50969;DHT22;36982;51.474;7.228;2023-11-21T08:17:42;9.00;99.90
50969;DHT22;36982;51.474;7.228;2023-11-21T08:20:08;9.10;99.90
50969;DHT22;36982;51.474;7.228;2023-11-21T08:22:36;9.30;99.90
50969;DHT22;36982;51.474;7.228;2023-11-21T08:25:02;9.30;99.90
50969;DHT22;36982;51.474;7.228;2023-11-21T08:27:30;9.30;99.90
50969;DHT22;36982;51.474;7.228;2023-11-21T08:29:55;9.40;99.90
50969;DHT22;36982;51.474;7.228;2023-11-21T08:32:22;9.40;99.90
50969;DHT22;36982;51.474;7.228;2023-11-21T08:34:48;9.40;99.90
50969;DHT22;36982;51.474;7.228;2023-11-21T08:37:16;9.40;99.90
50969;DHT22;36982;51.474;7.228;2023-11-21T08:39:43;9.60;99.90
50969;DHT22;36982;51.474;7.228;2023-11-21T08:42:09;9.40;99.90
50969;DHT22;36982;51.474;7.228;2023-11-21T08:44:34;9.50;99.90
50969;DHT22;36982;51.474;7.228;2023-11-21T08:47:00;9.40;99.90
50969;DHT22;36982;51.474;7.228;2023-11-21T08:49:25;9.40;99.90
50969;DHT22;36982;51.474;7.228;2023-11-21T08:51:53;9.40;99.90
50969;DHT22;36982;51.474;7.228;2023-11-21T08:54:21;9.40;99.90
50969;DHT22;36982;51.474;7.228;2023-11-21T08:56:46;9.30;99.90
50969;DHT22;36982;51.474;7.228;2023-11-21T08:59:13;9.30;99.90
50969;DHT22;36982;51.474;7.228;2023-11-21T09:01:39;9.40;99.90
50969;DHT22;36982;51.474;7.228;2023-11-21T09:04:06;9.50;99.90
50969;DHT22;36982;51.474;7.228;2023-11-21T09:06:31;9.50;99.90
50969;DHT22;36982;51.474;7.228;2023-11-21T09:08:57;9.60;99.90
50969;DHT22;36982;51.474;7.228;2023-11-21T09:11:23;9.60;99.90
50969;DHT22;36982;51.474;7.228;2023-11-21T09:13:50;9.60;99.90
50969;DHT22;36982;51.474;7.228;2023-11-21T09:16:17;9.70;99.90
50969;DHT22;36982;51.474;7.228;2023-11-21T09:18:42;9.70;99.90
50969;DHT22;36982;51.474;7.228;2023-11-21T09:21:08;9.80;99.90
50969;DHT22;36982;51.474;7.228;2023-11-21T09:23:35;9.80;99.90
50969;DHT22;36982;51.474;7.228;2023-11-21T09:26:01;9.90;99.90
50969;DHT22;36982;51.474;7.228;2023-11-21T09:28:27;9.90;99.90
50969;DHT22;36982;51.474;7.228;2023-11-21T09:30:53;9.80;99.90
50969;DHT22;36982;51.474;7.228;2023-11-21T09:33:19;10.00;99.90
50969;DHT22;36982;51.474;7.228;2023-11-21T09:35:44;10.00;99.90
50969;DHT22;36982;51.474;7.228;2023-11-21T09:38:10;10.00;99.90
50969;DHT22;36982;51.474;7.228;2023-11-21T09:40:37;10.10;99.90
50969;DHT22;36982;51.474;7.228;2023-11-21T09:43:09;10.20;99.90
50969;DHT22;36982;51.474;7.228;2023-11-21T09:45:48;10.20;99.90
50969;DHT22;36982;51.474;7.228;2023-11-21T09:48:20;10.10;99.90
50969;DHT22;36982;51.474;7.228;2023-11-21T09:50:47;10.10;99.90
50969;DHT22;36982;51.474;7.228;2023-11-21T09:53:17;10.10;99.90
50969;DHT22;36982;51.474;7.228;2023-11-21T09:55:46;10.20;99.90
50969;DHT22;36982;51.474;7.228;2023-11-21T09:58:14;10.20;99.90
50969;DHT22;36982;51.474;7.228;2023-11-21T10:00:41;10.20;99.90
50969;DHT22;36982;51.474;7.228;2023-11-21T10:03:08;10.30;99.90
50969;DHT22;36982;51.474;7.228;2023-11-21T10:05:37;10.20;99.90
50969;DHT22;36982;51.474;7.228;2023-11-21T10:08:10;10.10;99.90
50969;DHT22;36982;51.474;7.228;2023-11-21T10:10:37;10.10;99.90
50969;DHT22;36982;51.474;7.228;2023-11-21T10:13:05;10.00;99.90
50969;DHT22;36982;51.474;7.228;2023-11-21T10:15:34;10.00;99.90
50969;DHT22;36982;51.474;7.228;2023-11-21T10:18:07;10.00;99.90
50969;DHT22;36982;51.474;7.228;2023-11-21T10:20:33;10.00;99.90
50969;DHT22;36982;51.474;7.228;2023-11-21T10:23:03;10.10;99.90
50969;DHT22;36982;51.474;7.228;2023-11-21T10:25:32;10.10;99.90
50969;DHT22;36982;51.474;7.228;2023-11-21T10:28:02;10.20;99.90
50969;DHT22;36982;51.474;7.228;2023-11-21T10:30:35;10.30;99.90
50969;DHT22;36982;51.474;7.228;2023-11-21T10:33:06;10.40;99.90
50969;DHT22;36982;51.474;7.228;2023-11-21T10:35:44;10.50;99.90
50969;DHT22;36982;51.474;7.228;2023-11-21T10:38:14;10.60;99.90
50969;DHT22;36982;51.474;7.228;2023-11-21T10:40:43;10.70;99.90
50969;DHT22;36982;51.474;7.228;2023-11-21T10:43:11;10.90;99.90
50969;DHT22;36982;51.474;7.228;2023-11-21T10:45:39;10.80;99.90
50969;DHT22;36982;51.474;7.228;2023-11-21T10:48:06;11.00;99.90
50969;DHT22;36982;51.474;7.228;2023-11-21T10:50:36;10.80;99.90
50969;DHT22;36982;51.474;7.228;2023-11-21T10:53:05;10.90;99.90
50969;DHT22;36982;51.474;7.228;2023-11-21T10:55:32;10.90;99.90
50969;DHT22;36982;51.474;7.228;2023-11-21T10:58:00;10.90;99.90
50969;DHT22;36982;51.474;7.228;2023-11-21T11:00:28;11.00;99.90
50969;DHT22;36982;51.474;7.228;2023-11-21T11:02:54;11.00;99.90
50969;DHT22;36982;51.474;7.228;2023-11-21T11:05:24;11.00;99.90
50969;DHT22;36982;51.474;7.228;2023-11-21T11:07:56;10.90;99.90
50969;DHT22;36982;51.474;7.228;2023-11-21T11:10:26;10.90;99.90
50969;DHT22;36982;51.474;7.228;2023-11-21T11:12:55;10.80;99.90
50969;DHT22;36982;51.474;7.228;2023-11-21T11:15:23;10.80;99.90
50969;DHT22;36982;51.474;7.228;2023-11-21T11:17:49;10.90;99.90
50969;DHT22;36982;51.474;7.228;2023-11-21T11:20:16;11.00;99.90
50969;DHT22;36982;51.474;7.228;2023-11-21T11:27:54;10.90;99.90
50969;DHT22;36982;51.474;7.228;2023-11-21T11:33:04;10.90;99.90
50969;DHT22;36982;51.474;7.228;2023-11-21T11:35:49;10.90;99.90
50969;DHT22;36982;51.474;7.228;2023-11-21T11:38:20;10.80;99.90
50969;DHT22;36982;51.474;7.228;2023-11-21T11:40:47;10.90;99.90
50969;DHT22;36982;51.474;7.228;2023-11-21T11:43:13;10.80;99.90
50969;DHT22;36982;51.474;7.228;2023-11-21T11:45:39;10.80;99.90
50969;DHT22;36982;51.474;7.228;2023-11-21T11:48:08;10.80;99.90
50969;DHT22;36982;51.474;7.228;2023-11-21T11:50:42;10.90;99.90
50969;DHT22;36982;51.474;7.228;2023-11-21T11:53:25;10.90;99.90
50969;DHT22;36982;51.474;7.228;2023-11-21T11:56:41;10.80;99.90
50969;DHT22;36982;51.474;7.228;2023-11-21T11:58:58;10.60;99.90
50969;DHT22;36982;51.474;7.228;2023-11-21T12:01:27;10.50;99.90
50969;DHT22;36982;51.474;7.228;2023-11-21T12:04:25;10.50;99.90
50969;DHT22;36982;51.474;7.228;2023-11-21T12:07:00;10.50;99.90
50969;DHT22;36982;51.474;7.228;2023-11-21T12:09:28;10.30;99.90
50969;DHT22;36982;51.474;7.228;2023-11-21T12:11:55;10.00;99.90
50969;DHT22;36982;51.474;7.228;2023-11-21T12:14:24;10.10;99.90
50969;DHT22;36982;51.474;7.228;2023-11-21T12:16:49;10.00;99.90
50969;DHT22;36982;51.474;7.228;2023-11-21T12:19:17;9.90;99.90
50969;DHT22;36982;51.474;7.228;2023-11-21T12:21:42;9.80;99.90
50969;DHT22;36982;51.474;7.228;2023-11-21T12:24:09;9.70;99.90
50969;DHT22;36982;51.474;7.228;2023-11-21T12:26:35;9.60;99.90
50969;DHT22;36982;51.474;7.228;2023-11-21T12:29:04;9.50;99.90
50969;DHT22;36982;51.474;7.228;2023-11-21T12:31:30;9.60;99.90
50969;DHT22;36982;51.474;7.228;2023-11-21T12:33:56;9.60;99.90
50969;DHT22;36982;51.474;7.228;2023-11-21T12:36:23;9.60;99.90
50969;DHT22;36982;51.474;7.228;2023-11-21T12:38:49;9.60;99.90
50969;DHT22;36982;51.474;7.228;2023-11-21T12:41:16;9.60;99.90
50969;DHT22;36982;51.474;7.228;2023-11-21T12:43:42;9.60;99.90
50969;DHT22;36982;51.474;7.228;2023-11-21T12:46:10;9.60;99.90
50969;DHT22;36982;51.474;7.228;2023-11-21T12:48:44;9.60;99.90
50969;DHT22;36982;51.474;7.228;2023-11-21T12:51:11;9.60;99.90
50969;DHT22;36982;51.474;7.228;2023-11-21T12:53:38;9.60;99.90
50969;DHT22;36982;51.474;7.228;2023-11-21T12:56:09;9.50;99.90
50969;DHT22;36982;51.474;7.228;2023-11-21T12:58:40;9.50;99.90
50969;DHT22;36982;51.474;7.228;2023-11-21T13:01:10;9.50;99.90
50969;DHT22;36982;51.474;7.228;2023-11-21T13:03:40;9.50;99.90
50969;DHT22;36982;51.474;7.228;2023-11-21T13:06:06;9.50;99.90
50969;DHT22;36982;51.474;7.228;2023-11-21T13:08:33;9.40;99.90
50969;DHT22;36982;51.474;7.228;2023-11-21T13:10:59;9.40;99.90
50969;DHT22;36982;51.474;7.228;2023-11-21T13:13:28;9.40;99.90
50969;DHT22;36982;51.474;7.228;2023-11-21T13:15:55;9.30;99.90
50969;DHT22;36982;51.474;7.228;2023-11-21T13:18:22;9.20;99.90
50969;DHT22;36982;51.474;7.228;2023-11-21T13:20:49;9.20;99.90
50969;DHT22;36982;51.474;7.228;2023-11-21T13:23:15;9.20;99.90
50969;DHT22;36982;51.474;7.228;2023-11-21T13:25:43;9.20;99.90
50969;DHT22;36982;51.474;7.228;2023-11-21T13:28:11;9.20;99.90
50969;DHT22;36982;51.474;7.228;2023-11-21T13:30:37;9.20;99.90
50969;DHT22;36982;51.474;7.228;2023-11-21T13:33:03;9.20;99.90
50969;DHT22;36982;51.474;7.228;2023-11-21T13:35:33;9.20;99.90
50969;DHT22;36982;51.474;7.228;2023-11-21T13:38:08;9.20;99.90
50969;DHT22;36982;51.474;7.228;2023-11-21T13:40:35;9.10;99.90
50969;DHT22;36982;51.474;7.228;2023-11-21T13:43:08;9.20;99.90
50969;DHT22;36982;51.474;7.228;2023-11-21T13:45:39;9.20;99.90
50969;DHT22;36982;51.474;7.228;2023-11-21T13:48:06;9.20;99.90
50969;DHT22;36982;51.474;7.228;2023-11-21T13:50:36;9.20;99.90
50969;DHT22;36982;51.474;7.228;2023-11-21T13:53:02;9.10;99.90
50969;DHT22;36982;51.474;7.228;2023-11-21T13:55:34;9.10;99.90
50969;DHT22;36982;51.474;7.228;2023-11-21T13:58:01;9.10;99.90
50969;DHT22;36982;51.474;7.228;2023-11-21T14:00:34;9.10;99.90
50969;DHT22;36982;51.474;7.228;2023-11-21T14:03:14;9.10;99.90
50969;DHT22;36982;51.474;7.228;2023-11-21T14:05:46;9.10;99.90
50969;DHT22;36982;51.474;7.228;2023-11-21T14:08:22;9.10;99.90
50969;DHT22;36982;51.474;7.228;2023-11-21T14:10:57;9.20;99.90
50969;DHT22;36982;51.474;7.228;2023-11-21T14:13:25;9.20;99.90
50969;DHT22;36982;51.474;7.228;2023-11-21T14:15:51;9.40;99.90
50969;DHT22;36982;51.474;7.228;2023-11-21T14:18:25;9.20;99.90
50969;DHT22;36982;51.474;7.228;2023-11-21T14:21:04;9.20;99.90
50969;DHT22;36982;51.474;7.228;2023-11-21T14:23:31;9.10;99.90
50969;DHT22;36982;51.474;7.228;2023-11-21T14:25:58;9.20;99.90
50969;DHT22;36982;51.474;7.228;2023-11-21T14:28:26;9.10;99.90
50969;DHT22;36982;51.474;7.228;2023-11-21T14:30:52;9.10;99.90
50969;DHT22;36982;51.474;7.228;2023-11-21T14:33:17;9.10;99.90
50969;DHT22;36982;51.474;7.228;2023-11-21T14:35:43;9.10;99.90
50969;DHT22;36982;51.474;7.228;2023-11-21T14:38:10;9.20;99.90
50969;DHT22;36982;51.474;7.228;2023-11-21T14:40:36;9.30;99.90
50969;DHT22;36982;51.474;7.228;2023-11-21T14:43:04;9.20;99.90
50969;DHT22;36982;51.474;7.228;2023-11-21T14:45:34;9.10;99.90
50969;DHT22;36982;51.474;7.228;2023-11-21T14:48:00;9.10;99.90
50969;DHT22;36982;51.474;7.228;2023-11-21T14:50:34;9.10;99.90
50969;DHT22;36982;51.474;7.228;2023-11-21T14:53:03;9.20;99.90
50969;DHT22;36982;51.474;7.228;2023-11-21T14:55:32;9.00;99.90
50969;DHT22;36982;51.474;7.228;2023-11-21T14:58:04;9.10;99.90
50969;DHT22;36982;51.474;7.228;2023-11-21T15:00:30;9.00;99.90
50969;DHT22;36982;51.474;7.228;2023-11-21T15:03:16;8.90;99.90
50969;DHT22;36982;51.474;7.228;2023-11-21T15:06:06;8.90;99.90
50969;DHT22;36982;51.474;7.228;2023-11-21T15:08:55;8.90;99.90
50969;DHT22;36982;51.474;7.228;2023-11-21T15:11:41;8.90;99.90
50969;DHT22;36982;51.474;7.228;2023-11-21T15:14:07;8.80;99.90
50969;DHT22;36982;51.474;7.228;2023-11-21T15:16:35;8.90;99.90
50969;DHT22;36982;51.474;7.228;2023-11-21T15:19:11;8.90;99.90
50969;DHT22;36982;51.474;7.228;2023-11-21T15:21:43;8.80;99.90
50969;DHT22;36982;51.474;7.228;2023-11-21T15:24:10;9.00;99.90
50969;DHT22;36982;51.474;7.228;2023-11-21T15:26:36;8.90;99.90
50969;DHT22;36982;51.474;7.228;2023-11-21T15:29:01;9.00;99.90
50969;DHT22;36982;51.474;7.228;2023-11-21T15:31:27;8.90;99.90
50969;DHT22;36982;51.474;7.228;2023-11-21T15:33:53;8.80;99.90
50969;DHT22;36982;51.474;7.228;2023-11-21T15:36:19;8.70;99.90
50969;DHT22;36982;51.474;7.228;2023-11-21T15:38:45;8.70;99.90
50969;DHT22;36982;51.474;7.228;2023-11-21T15:41:11;8.70;99.90
50969;DHT22;36982;51.474;7.228;2023-11-21T15:43:37;8.50;99.90
50969;DHT22;36982;51.474;7.228;2023-11-21T15:46:03;8.50;99.90
50969;DHT22;36982;51.474;7.228;2023-11-21T15:48:36;8.40;99.90
50969;DHT22;36982;51.474;7.228;2023-11-21T15:51:04;8.40;99.90
50969;DHT22;36982;51.474;7.228;2023-11-21T15:53:30;8.30;99.90